Etusivu
METAR-TAF:

METAR-TAF

Lentoasemat :

Geilenkirchen, Saksa

Leveyspiiri: 50-57-39N, Pituuspiiri: 006-2-33E, korkeus merenpinnasta: 90 m

Tämänhetkinen sää

Tämä raportti tehtiin 1 tunti ja 15 minuuttia sitten, kello 17.50 UTC
Tuuli 7 kn lännestä/luoteesta
Lämpötila 10°C
Kosteus 76%
Ilmanpaine 1002 hPa
Näkyvyys 10 km tai enemmän

METAR: ETNG 031750Z AUTO 29007KT 9999 FEW110/// SCT280/// 10/06 Q1002

Aika: 20:05 (19:05 UTC)


TAF: puuttuu

Säähavainnot ja -ennusteet yli 4000 lentoasemalta (METAR- ja TAF-raportit).

Käytössä olevat sääasemat on merkitty karttaan keltaisilla ja punaisilla pisteillä.

Aseta hiiri pisteen päälle nähdäksesi sääaseman nimen.

Klikkaa sitten nähdäksesi säähavainnot ja -ennusteet.

Kartan vaihtaminen: klikkaa mustalla rastilla varustettuja vihreitä pisteitä, niin voit zoomata sisään; viivalla varustettua vihreää pistettä, niin voit zoomata ulos tai vihreitä nuolia, niin pääset viereisille kartoille.


METAR-TAF: